createdAt,value
2017-03-03T00:00:36.278Z,6.92
2017-03-03T00:01:46.586Z,7.03
2017-03-03T00:02:56.381Z,6.89
2017-03-03T00:04:05.361Z,6.92
2017-03-03T00:05:15.143Z,6.85
2017-03-03T00:06:24.820Z,6.87
2017-03-03T00:07:35.995Z,6.87
2017-03-03T00:08:45.308Z,6.84
2017-03-03T00:09:55.773Z,6.87
2017-03-03T00:11:04.962Z,6.87
2017-03-03T00:12:14.426Z,6.87
2017-03-03T00:13:23.404Z,6.89
2017-03-03T00:14:33.146Z,6.85
2017-03-03T00:15:42.169Z,6.8
2017-03-03T00:16:52.109Z,6.84
2017-03-03T00:18:01.597Z,6.85
2017-03-03T00:19:10.912Z,6.84
2017-03-03T00:20:20.179Z,6.81
2017-03-03T00:21:29.741Z,6.88
2017-03-03T00:22:38.734Z,6.81
2017-03-03T00:23:48.436Z,6.8
2017-03-03T00:24:57.527Z,6.84
2017-03-03T00:26:07.567Z,6.79
2017-03-03T00:27:16.738Z,6.85
2017-03-03T00:28:27.785Z,6.85
2017-03-03T00:29:36.781Z,6.84
2017-03-03T00:30:47.544Z,6.81
2017-03-03T00:31:57.474Z,6.81
2017-03-03T00:33:06.464Z,6.71
2017-03-03T00:34:15.810Z,6.85
2017-03-03T00:35:24.787Z,6.74
2017-03-03T00:36:34.588Z,6.84
2017-03-03T00:37:43.871Z,6.79
2017-03-03T00:38:55.305Z,6.73
2017-03-03T00:40:04.417Z,6.76
2017-03-03T00:41:14.271Z,6.66
2017-03-03T00:42:23.441Z,6.61
2017-03-03T00:43:33.410Z,6.64
2017-03-03T00:44:42.384Z,6.62
2017-03-03T00:45:51.493Z,6.62
2017-03-03T00:47:00.488Z,6.66
2017-03-03T00:48:09.461Z,6.61
2017-03-03T00:49:18.806Z,6.64
2017-03-03T00:50:28.012Z,6.64
2017-03-03T00:51:36.991Z,6.71
2017-03-03T00:52:46.527Z,6.61
2017-03-03T00:53:55.518Z,6.61
2017-03-03T00:55:07.119Z,6.59
2017-03-03T00:56:16.505Z,6.64
2017-03-03T00:57:26.685Z,6.67
2017-03-03T00:58:35.689Z,6.58
2017-03-03T00:59:45.409Z,6.64
2017-03-03T01:00:55.041Z,6.66
2017-03-03T01:02:04.432Z,6.62
2017-03-03T01:03:13.420Z,6.7
2017-03-03T01:04:22.669Z,6.76
2017-03-03T01:05:31.648Z,6.89
2017-03-03T01:06:41.883Z,6.87
2017-03-03T01:07:50.958Z,6.87
2017-03-03T01:09:00.305Z,6.88
2017-03-03T01:10:09.294Z,6.84
2017-03-03T01:11:19.155Z,6.73
2017-03-03T01:12:28.391Z,6.84
2017-03-03T01:13:38.222Z,6.76
2017-03-03T01:14:47.223Z,6.77
2017-03-03T01:15:56.646Z,6.64
2017-03-03T01:17:05.624Z,6.66
2017-03-03T01:18:15.364Z,6.66
2017-03-03T01:19:24.335Z,6.66
2017-03-03T01:20:33.733Z,6.61
2017-03-03T01:21:42.722Z,6.55
2017-03-03T01:22:52.569Z,6.66
2017-03-03T01:24:01.804Z,6.62
2017-03-03T01:25:11.658Z,6.56
2017-03-03T01:26:20.801Z,6.49
2017-03-03T01:27:30.174Z,6.58
2017-03-03T01:28:39.269Z,6.67
2017-03-03T01:29:49.084Z,6.59
2017-03-03T01:30:58.059Z,6.59
2017-03-03T01:32:07.752Z,6.51
2017-03-03T01:33:16.724Z,6.48
2017-03-03T01:34:26.059Z,6.46
2017-03-03T01:35:35.336Z,6.54
2017-03-03T01:36:45.733Z,6.51
2017-03-03T01:37:54.743Z,6.55
2017-03-03T01:39:04.270Z,6.49
2017-03-03T01:40:13.309Z,6.52
2017-03-03T01:41:23.226Z,6.49
2017-03-03T01:42:32.205Z,6.54
2017-03-03T01:43:41.815Z,6.55
2017-03-03T01:44:50.892Z,6.58
2017-03-03T01:46:01.084Z,6.58
2017-03-03T01:47:10.331Z,6.59
2017-03-03T01:48:20.171Z,6.59
2017-03-03T01:49:29.179Z,6.62
2017-03-03T01:50:38.992Z,6.59
2017-03-03T01:51:47.975Z,6.66
2017-03-03T01:52:57.949Z,6.66
2017-03-03T01:54:06.941Z,6.58
2017-03-03T01:55:16.784Z,6.58
2017-03-03T01:56:26.195Z,6.55
2017-03-03T01:57:35.581Z,6.48
2017-03-03T01:58:44.891Z,6.44
2017-03-03T01:59:54.128Z,6.4
2017-03-03T02:01:03.265Z,6.46
2017-03-03T02:02:13.343Z,6.48
2017-03-03T02:03:22.425Z,6.41
2017-03-03T02:04:33.745Z,6.49
2017-03-03T02:05:42.770Z,6.48
2017-03-03T02:06:52.911Z,6.43
2017-03-03T02:08:02.738Z,6.48
2017-03-03T02:09:11.805Z,6.44
2017-03-03T02:10:21.509Z,6.44
2017-03-03T02:11:30.516Z,6.44
2017-03-03T02:12:39.503Z,6.48
2017-03-03T02:13:48.493Z,6.49
2017-03-03T02:14:57.981Z,6.49
2017-03-03T02:16:07.206Z,6.33
2017-03-03T02:17:16.201Z,6.43
2017-03-03T02:18:25.274Z,6.43
2017-03-03T02:19:34.266Z,6.33
2017-03-03T02:20:43.259Z,6.34
2017-03-03T02:21:52.486Z,6.33
2017-03-03T02:23:01.870Z,6.33
2017-03-03T02:24:10.857Z,6.41
2017-03-03T02:25:19.941Z,6.4
2017-03-03T02:26:28.911Z,6.36
2017-03-03T02:27:38.146Z,6.41
2017-03-03T02:28:47.139Z,6.4
2017-03-03T02:29:56.140Z,6.46
2017-03-03T02:31:05.158Z,6.41
2017-03-03T02:32:14.155Z,6.4
2017-03-03T02:33:23.925Z,6.38
2017-03-03T02:34:32.943Z,6.34
2017-03-03T02:35:41.929Z,6.41
2017-03-03T02:36:50.907Z,6.41
2017-03-03T02:37:59.889Z,6.48
2017-03-03T02:39:09.220Z,6.43
2017-03-03T02:40:18.205Z,6.48
2017-03-03T02:41:27.198Z,6.43
2017-03-03T02:42:36.189Z,6.49
2017-03-03T02:43:45.197Z,6.37
2017-03-03T02:44:54.444Z,6.38
2017-03-03T02:46:03.474Z,6.48
2017-03-03T02:47:12.458Z,6.49
2017-03-03T02:48:21.457Z,6.49
2017-03-03T02:49:30.529Z,6.38
2017-03-03T02:50:39.772Z,6.43
2017-03-03T02:51:48.749Z,6.41
2017-03-03T02:52:57.835Z,6.3
2017-03-03T02:54:06.814Z,6.31
2017-03-03T02:55:15.816Z,6.38
2017-03-03T02:56:25.056Z,6.41
2017-03-03T02:57:34.431Z,6.31
2017-03-03T02:58:43.400Z,6.25
2017-03-03T02:59:52.390Z,6.28
2017-03-03T03:01:01.463Z,6.31
2017-03-03T03:02:10.686Z,6.25
2017-03-03T03:03:19.675Z,6.19
2017-03-03T03:04:28.659Z,6.15
2017-03-03T03:05:37.647Z,6.14
2017-03-03T03:06:46.640Z,6.19
2017-03-03T03:07:55.882Z,6.14
2017-03-03T03:09:04.854Z,6.21
2017-03-03T03:10:13.852Z,6.18
2017-03-03T03:11:22.855Z,6.18
2017-03-03T03:12:31.840Z,6.15
2017-03-03T03:13:41.143Z,6.18
2017-03-03T03:14:50.124Z,6.11
2017-03-03T03:15:59.108Z,6.22
2017-03-03T03:17:08.119Z,6.31
2017-03-03T03:18:17.100Z,6.25
2017-03-03T03:19:26.333Z,6.22
2017-03-03T03:20:35.728Z,6.27
2017-03-03T03:21:44.810Z,6.33
2017-03-03T03:22:53.813Z,6.34
2017-03-03T03:24:02.795Z,6.28
2017-03-03T03:25:12.030Z,6.33
2017-03-03T03:26:21.037Z,6.19
2017-03-03T03:27:30.028Z,6.18
2017-03-03T03:28:39.024Z,6.19
2017-03-03T03:29:47.998Z,6.11
2017-03-03T03:30:57.232Z,6.17
2017-03-03T03:32:06.320Z,6.22
2017-03-03T03:33:15.324Z,6.18
2017-03-03T03:34:24.301Z,6.15
2017-03-03T03:35:33.283Z,6.14
2017-03-03T03:36:42.569Z,6.18
2017-03-03T03:37:51.560Z,6.12
2017-03-03T03:39:00.581Z,6.25
2017-03-03T03:40:09.666Z,6.28
2017-03-03T03:41:18.665Z,6.28
2017-03-03T03:42:27.912Z,6.27
2017-03-03T03:43:36.897Z,6.27
2017-03-03T03:44:45.983Z,6.25
2017-03-03T03:45:54.962Z,6.28
2017-03-03T03:47:03.941Z,6.22
2017-03-03T03:48:13.169Z,6.22
2017-03-03T03:49:22.171Z,6.18
2017-03-03T03:50:31.147Z,6.14
2017-03-03T03:51:40.149Z,6.19
2017-03-03T03:52:49.139Z,6.19
2017-03-03T03:53:58.426Z,6.18
2017-03-03T03:55:07.415Z,6.25
2017-03-03T03:56:16.907Z,6.17
2017-03-03T03:57:26.066Z,6.22
2017-03-03T03:58:35.045Z,6.14
2017-03-03T03:59:44.358Z,6.12
2017-03-03T04:00:53.347Z,6.15
2017-03-03T04:02:02.322Z,6.18
2017-03-03T04:03:11.306Z,6.22
2017-03-03T04:04:20.375Z,6.17
2017-03-03T04:05:29.602Z,6.17
2017-03-03T04:06:39.001Z,6.15
2017-03-03T04:07:47.976Z,6.22
2017-03-03T04:08:56.974Z,6.12
2017-03-03T04:10:06.469Z,6.18
2017-03-03T04:11:15.804Z,6.14
2017-03-03T04:12:24.787Z,6.14
2017-03-03T04:13:33.859Z,6.11
2017-03-03T04:14:42.832Z,6.17
2017-03-03T04:15:51.825Z,6.21
2017-03-03T04:17:01.072Z,6.12
2017-03-03T04:18:10.055Z,6.19
2017-03-03T04:19:19.062Z,6.11
2017-03-03T04:20:28.033Z,6.11
2017-03-03T04:21:37.007Z,6.15
2017-03-03T04:22:46.227Z,6.21
2017-03-03T04:23:55.296Z,6.17
2017-03-03T04:25:04.367Z,6.11
2017-03-03T04:26:13.340Z,6.15
2017-03-03T04:27:22.321Z,6.17
2017-03-03T04:28:31.787Z,6.17
2017-03-03T04:29:40.851Z,6.18
2017-03-03T04:30:49.846Z,6.09
2017-03-03T04:31:58.821Z,6.17
2017-03-03T04:33:08.381Z,6.19
2017-03-03T04:34:18.139Z,6.28
2017-03-03T04:35:27.112Z,6.19
2017-03-03T04:36:36.095Z,6.21
2017-03-03T04:37:45.191Z,6.15
2017-03-03T04:38:54.264Z,6.17
2017-03-03T04:40:03.913Z,6.18
2017-03-03T04:41:13.312Z,6.21
2017-03-03T04:42:22.295Z,6.25
2017-03-03T04:43:31.284Z,6.27
2017-03-03T04:44:40.362Z,6.33
2017-03-03T04:45:49.704Z,6.19
2017-03-03T04:46:58.775Z,6.19
2017-03-03T04:48:07.758Z,6.14
2017-03-03T04:49:16.847Z,6.22
2017-03-03T04:50:25.823Z,6.21
2017-03-03T04:51:35.114Z,6.12
2017-03-03T04:52:44.104Z,6.27
2017-03-03T04:53:53.079Z,6.21
2017-03-03T04:55:02.061Z,6.18
2017-03-03T04:56:11.459Z,6.14
2017-03-03T04:57:20.755Z,6.17
2017-03-03T04:58:29.763Z,6.18
2017-03-03T04:59:38.745Z,6.25
2017-03-03T05:00:47.741Z,6.25
2017-03-03T05:01:56.728Z,6.22
2017-03-03T05:03:05.982Z,6.19
2017-03-03T05:04:14.954Z,6.22
2017-03-03T05:05:23.948Z,6.19
2017-03-03T05:06:32.920Z,6.22
2017-03-03T05:07:41.894Z,6.25
2017-03-03T05:08:51.188Z,6.31
2017-03-03T05:10:00.189Z,6.27
2017-03-03T05:11:09.206Z,6.3
2017-03-03T05:12:18.223Z,6.19
2017-03-03T05:13:27.201Z,6.21
2017-03-03T05:14:36.483Z,6.31
2017-03-03T05:15:45.544Z,6.22
2017-03-03T05:16:54.552Z,6.28
2017-03-03T05:18:03.536Z,6.28
2017-03-03T05:19:12.527Z,6.25
2017-03-03T05:20:21.803Z,6.25
2017-03-03T05:21:30.773Z,6.21
2017-03-03T05:22:39.833Z,6.22
2017-03-03T05:23:48.818Z,6.21
2017-03-03T05:24:57.792Z,6.18
2017-03-03T05:26:07.080Z,6.19
2017-03-03T05:27:16.075Z,6.15
2017-03-03T05:28:25.068Z,6.18
2017-03-03T05:29:34.069Z,6.21
2017-03-03T05:30:43.058Z,6.15
2017-03-03T05:31:52.295Z,6.19
2017-03-03T05:33:01.791Z,6.19
2017-03-03T05:34:10.767Z,6.17
2017-03-03T05:35:19.763Z,6.19
2017-03-03T05:36:28.743Z,6.17
2017-03-03T05:37:38.032Z,6.22
2017-03-03T05:38:47.033Z,6.19
2017-03-03T05:39:56.126Z,6.22
2017-03-03T05:41:05.128Z,6.12
2017-03-03T05:42:14.115Z,6.21
2017-03-03T05:43:23.386Z,6.17
2017-03-03T05:44:32.463Z,6.22
2017-03-03T05:45:41.467Z,6.08
2017-03-03T05:46:50.457Z,6.17
2017-03-03T05:47:59.440Z,6.17
2017-03-03T05:49:09.092Z,6.15
2017-03-03T05:50:18.085Z,6.11
2017-03-03T05:51:27.068Z,6.14
2017-03-03T05:52:36.058Z,6.17
2017-03-03T05:53:45.050Z,6.17
2017-03-03T05:54:54.351Z,6.15
2017-03-03T05:56:03.342Z,6.11
2017-03-03T05:57:12.325Z,6.15
2017-03-03T05:58:21.306Z,6.11
2017-03-03T05:59:30.277Z,6.12
2017-03-03T06:00:39.568Z,6.14
2017-03-03T06:01:48.554Z,6.17
2017-03-03T06:02:57.628Z,6.15
2017-03-03T06:04:07.015Z,6.03
2017-03-03T06:05:16.002Z,6.04
2017-03-03T06:06:25.281Z,6.03
2017-03-03T06:07:34.260Z,6.01
2017-03-03T06:08:43.357Z,6.01
2017-03-03T06:09:52.342Z,5.99
2017-03-03T06:11:01.508Z,6.03
2017-03-03T06:12:10.744Z,6.03
2017-03-03T06:13:20.136Z,6
2017-03-03T06:14:29.123Z,6.08
2017-03-03T06:15:38.099Z,6.14
2017-03-03T06:16:47.094Z,6.06
2017-03-03T06:17:56.318Z,6.09
2017-03-03T06:19:05.386Z,6.15
2017-03-03T06:20:14.377Z,6.03
2017-03-03T06:21:23.454Z,6.11
2017-03-03T06:22:32.430Z,6.19
2017-03-03T06:23:41.773Z,6.17
2017-03-03T06:24:50.752Z,6.08
2017-03-03T06:25:59.749Z,6.06
2017-03-03T06:27:08.725Z,6.06
2017-03-03T06:28:17.719Z,6.09
2017-03-03T06:29:27.259Z,6.04
2017-03-03T06:30:36.244Z,6.06
2017-03-03T06:31:45.418Z,6.04
2017-03-03T06:32:54.393Z,6.08
2017-03-03T06:34:03.806Z,6.17
2017-03-03T06:35:13.061Z,6.11
2017-03-03T06:36:22.758Z,6.14
2017-03-03T06:37:31.744Z,6.22
2017-03-03T06:38:40.725Z,6.15
2017-03-03T06:39:49.719Z,6.18
2017-03-03T06:40:59.095Z,6.25
2017-03-03T06:42:08.499Z,6.21
2017-03-03T06:43:17.483Z,6.14
2017-03-03T06:44:26.458Z,6.19
2017-03-03T06:45:35.445Z,6.25
2017-03-03T06:46:44.738Z,6.3
2017-03-03T06:47:53.722Z,6.31
2017-03-03T06:49:02.705Z,6.27
2017-03-03T06:50:11.691Z,6.25
2017-03-03T06:51:20.845Z,6.34
2017-03-03T06:52:30.117Z,6.36
2017-03-03T06:53:39.239Z,6.4
2017-03-03T06:54:49.014Z,6.48
2017-03-03T06:55:58.035Z,6.46
2017-03-03T06:57:07.028Z,6.43
2017-03-03T06:58:16.328Z,6.46
2017-03-03T06:59:25.306Z,6.46
2017-03-03T07:00:34.797Z,6.48
2017-03-03T07:01:44.193Z,6.44
2017-03-03T07:02:53.200Z,6.49
2017-03-03T07:04:02.517Z,6.48
2017-03-03T07:05:11.565Z,6.48
2017-03-03T07:06:20.538Z,6.49
2017-03-03T07:07:29.604Z,6.43
2017-03-03T07:08:39.171Z,6.48
2017-03-03T07:09:48.484Z,6.58
2017-03-03T07:10:57.494Z,6.54
2017-03-03T07:12:06.470Z,6.56
2017-03-03T07:13:15.466Z,6.51
2017-03-03T07:14:24.540Z,6.55
2017-03-03T07:15:33.934Z,6.59
2017-03-03T07:16:42.942Z,6.62
2017-03-03T07:17:51.927Z,6.64
2017-03-03T07:19:00.958Z,6.67
2017-03-03T07:20:09.969Z,6.66
2017-03-03T07:21:19.203Z,6.7
2017-03-03T07:22:28.210Z,6.74
2017-03-03T07:23:37.246Z,6.85
2017-03-03T07:24:46.369Z,6.84
2017-03-03T07:25:55.667Z,6.85
2017-03-03T07:27:04.958Z,6.85
2017-03-03T07:28:13.967Z,6.81
2017-03-03T07:29:23.387Z,7.02
2017-03-03T07:30:32.380Z,7.05
2017-03-03T07:31:41.441Z,6.89
2017-03-03T07:32:51.132Z,7.03
2017-03-03T07:34:00.172Z,7.02
2017-03-03T07:35:09.416Z,6.98
2017-03-03T07:36:18.432Z,6.99
2017-03-03T07:37:27.608Z,7.16
2017-03-03T07:38:36.901Z,7.2
2017-03-03T07:39:45.903Z,7.15
2017-03-03T07:40:54.876Z,7.16
2017-03-03T07:42:03.936Z,7.17
2017-03-03T07:43:12.913Z,7.12
2017-03-03T07:44:22.229Z,7.2
2017-03-03T07:45:32.426Z,7.25
2017-03-03T07:46:41.916Z,7.23
2017-03-03T07:47:50.989Z,7.21
2017-03-03T07:49:00.028Z,7.27
2017-03-03T07:50:09.475Z,7.31
2017-03-03T07:51:18.560Z,7.31
2017-03-03T07:52:27.563Z,7.39
2017-03-03T07:53:36.549Z,7.39
2017-03-03T07:54:45.730Z,7.42
2017-03-03T07:55:55.208Z,7.55
2017-03-03T07:57:04.590Z,7.53
2017-03-03T07:58:13.625Z,7.49
2017-03-03T07:59:22.636Z,7.58
2017-03-03T08:00:31.696Z,7.57
2017-03-03T08:01:41.663Z,7.5
2017-03-03T08:02:50.736Z,7.64
2017-03-03T08:03:59.743Z,7.58
2017-03-03T08:05:08.758Z,7.68
2017-03-03T08:06:17.745Z,7.71
2017-03-03T08:07:26.997Z,7.79
2017-03-03T08:08:36.078Z,7.85
2017-03-03T08:09:45.245Z,7.83
2017-03-03T08:10:54.234Z,7.85
2017-03-03T08:12:03.880Z,7.89
2017-03-03T08:13:13.124Z,7.93
2017-03-03T08:14:22.661Z,7.95
2017-03-03T08:15:31.642Z,7.95
2017-03-03T08:16:40.632Z,8.01
2017-03-03T08:17:49.663Z,8.07
2017-03-03T08:18:59.083Z,8.16
2017-03-03T08:20:08.211Z,8.19
2017-03-03T08:21:17.561Z,8.15
2017-03-03T08:22:26.547Z,8.26
2017-03-03T08:23:35.700Z,8.16
2017-03-03T08:24:45.153Z,8.2
2017-03-03T08:25:54.165Z,8.29
2017-03-03T08:27:03.195Z,8.29
2017-03-03T08:28:12.192Z,8.4
2017-03-03T08:29:21.199Z,8.4
2017-03-03T08:30:30.507Z,8.41
2017-03-03T08:31:39.739Z,8.43
2017-03-03T08:32:48.745Z,8.44
2017-03-03T08:33:57.730Z,8.43
2017-03-03T08:35:06.833Z,8.52
2017-03-03T08:36:16.112Z,8.45
2017-03-03T08:37:25.099Z,8.53
2017-03-03T08:38:34.096Z,8.62
2017-03-03T08:39:43.274Z,8.62
2017-03-03T08:40:52.325Z,8.61
2017-03-03T08:42:01.720Z,8.63
2017-03-03T08:43:10.902Z,8.55
2017-03-03T08:44:19.972Z,8.62
2017-03-03T08:45:28.961Z,8.66
2017-03-03T08:46:37.983Z,8.66
2017-03-03T08:47:47.361Z,8.74
2017-03-03T08:48:56.365Z,8.8
2017-03-03T08:50:05.434Z,8.76
2017-03-03T08:51:14.434Z,8.79
2017-03-03T08:52:23.430Z,8.83
2017-03-03T08:53:32.760Z,8.83
2017-03-03T08:54:41.743Z,8.91
2017-03-03T08:55:51.587Z,8.91
2017-03-03T08:57:00.598Z,8.89
2017-03-03T08:58:09.592Z,8.98
2017-03-03T08:59:20.701Z,9.08
2017-03-03T09:00:32.207Z,9.08
2017-03-03T09:01:41.212Z,9.1
2017-03-03T09:02:50.205Z,9.23
2017-03-03T09:03:59.298Z,9.17
2017-03-03T09:05:08.712Z,9.2
2017-03-03T09:06:18.108Z,9.21
2017-03-03T09:07:27.101Z,9.36
2017-03-03T09:08:36.091Z,9.32
2017-03-03T09:09:45.205Z,9.39
2017-03-03T09:10:54.576Z,9.47
2017-03-03T09:12:03.988Z,9.46
2017-03-03T09:13:12.997Z,9.46
2017-03-03T09:14:21.995Z,9.42
2017-03-03T09:15:31.083Z,9.51
2017-03-03T09:16:40.467Z,9.46
2017-03-03T09:17:49.474Z,9.57
2017-03-03T09:18:58.630Z,9.53
2017-03-03T09:20:07.688Z,9.5
2017-03-03T09:21:16.946Z,9.64
2017-03-03T09:22:26.432Z,9.64
2017-03-03T09:23:35.527Z,9.71
2017-03-03T09:24:44.549Z,9.81
2017-03-03T09:25:53.553Z,9.81
2017-03-03T09:27:02.549Z,9.86
2017-03-03T09:28:12.878Z,9.87
2017-03-03T09:29:21.868Z,9.76
2017-03-03T09:30:30.854Z,9.86
2017-03-03T09:31:39.935Z,9.93
2017-03-03T09:32:49.024Z,10.02
2017-03-03T09:33:58.614Z,10.09
2017-03-03T09:35:08.131Z,10.12
2017-03-03T09:36:18.034Z,10.11
2017-03-03T09:37:30.891Z,10.18
2017-03-03T09:38:42.967Z,10.2
2017-03-03T09:39:53.409Z,10.3
2017-03-03T09:41:03.020Z,10.3
2017-03-03T09:42:12.479Z,10.36
2017-03-03T09:43:21.635Z,10.42
2017-03-03T09:44:31.339Z,10.47
2017-03-03T09:45:40.719Z,10.42
2017-03-03T09:46:49.952Z,10.45
2017-03-03T09:47:59.050Z,10.61
2017-03-03T09:49:08.861Z,10.59
2017-03-03T09:50:17.986Z,10.61
2017-03-03T09:51:27.292Z,10.68
2017-03-03T09:52:36.281Z,10.63
2017-03-03T09:53:45.303Z,10.7
2017-03-03T09:54:54.411Z,10.78
2017-03-03T09:56:03.400Z,10.89
2017-03-03T09:57:12.786Z,10.97
2017-03-03T09:58:21.776Z,11.02
2017-03-03T09:59:30.800Z,10.99
2017-03-03T10:00:39.860Z,11.1
2017-03-03T10:01:49.035Z,11.1
2017-03-03T10:02:58.354Z,11.15
2017-03-03T10:04:07.563Z,11.1
2017-03-03T10:05:16.673Z,11.04
2017-03-03T10:06:25.655Z,11.07
2017-03-03T10:07:34.658Z,11.1
2017-03-03T10:08:43.971Z,11.04
2017-03-03T10:09:53.565Z,11.24
2017-03-03T10:11:02.600Z,11.11
2017-03-03T10:12:11.580Z,11.15
2017-03-03T10:13:20.572Z,11.14
2017-03-03T10:14:30.337Z,11.14
2017-03-03T10:15:39.386Z,11.1
2017-03-03T10:16:48.467Z,11.14
2017-03-03T10:17:57.462Z,11.19
2017-03-03T10:19:06.455Z,11.22
2017-03-03T10:20:15.736Z,11.18
2017-03-03T10:21:24.738Z,11.22
2017-03-03T10:22:33.942Z,11.18
2017-03-03T10:23:42.940Z,11.25
2017-03-03T10:24:51.944Z,11.29
2017-03-03T10:26:01.233Z,11.33
2017-03-03T10:27:10.847Z,11.32
2017-03-03T10:28:20.296Z,11.37
2017-03-03T10:29:29.272Z,11.35
2017-03-03T10:30:38.293Z,11.32
2017-03-03T10:31:47.676Z,11.25
2017-03-03T10:32:56.667Z,11.29
2017-03-03T10:34:05.813Z,11.33
2017-03-03T10:35:14.947Z,11.32
2017-03-03T10:36:23.950Z,11.32
2017-03-03T10:37:33.477Z,11.37
2017-03-03T10:38:42.459Z,11.29
2017-03-03T10:39:51.635Z,11.28
2017-03-03T10:41:00.697Z,11.32
2017-03-03T10:42:09.831Z,11.36
2017-03-03T10:43:19.144Z,11.29
2017-03-03T10:44:28.129Z,11.36
2017-03-03T10:45:37.214Z,11.4
2017-03-03T10:46:46.298Z,11.36
2017-03-03T10:47:55.300Z,11.32
2017-03-03T10:49:04.587Z,11.37
2017-03-03T10:50:13.767Z,11.44
2017-03-03T10:51:22.773Z,11.46
2017-03-03T10:52:31.770Z,11.46
2017-03-03T10:53:40.771Z,11.47
2017-03-03T10:54:50.164Z,11.42
2017-03-03T10:55:59.153Z,11.55
2017-03-03T10:57:08.162Z,11.57
2017-03-03T10:58:17.168Z,11.44
2017-03-03T10:59:26.164Z,11.32
2017-03-03T11:00:35.471Z,11.22
2017-03-03T11:01:44.480Z,11.22
2017-03-03T11:02:53.474Z,11.15
2017-03-03T11:04:02.482Z,11.18
2017-03-03T11:05:11.472Z,11.09
2017-03-03T11:06:20.753Z,11.14
2017-03-03T11:07:29.831Z,11.15
2017-03-03T11:08:38.848Z,11.19
2017-03-03T11:09:48.553Z,11.09
2017-03-03T11:10:57.568Z,11.17
2017-03-03T11:12:06.795Z,11.24
2017-03-03T11:13:15.804Z,11.1
2017-03-03T11:14:24.881Z,11.18
2017-03-03T11:15:33.877Z,11.15
2017-03-03T11:16:42.862Z,11.19
2017-03-03T11:17:52.117Z,11.14
2017-03-03T11:19:01.518Z,11.22
2017-03-03T11:20:10.614Z,11.25
2017-03-03T11:21:19.614Z,11.25
2017-03-03T11:22:29.020Z,11.25
2017-03-03T11:23:38.392Z,11.36
2017-03-03T11:24:47.384Z,11.52
2017-03-03T11:25:56.369Z,11.47
2017-03-03T11:27:05.351Z,11.64
2017-03-03T11:28:14.355Z,11.67
2017-03-03T11:29:24.045Z,11.65
2017-03-03T11:30:33.033Z,11.64
2017-03-03T11:31:42.042Z,11.75
2017-03-03T11:32:51.022Z,11.62
2017-03-03T11:34:00.025Z,11.62
2017-03-03T11:35:09.305Z,11.7
2017-03-03T11:36:18.320Z,11.67
2017-03-03T11:37:27.314Z,11.72
2017-03-03T11:38:36.293Z,11.64
2017-03-03T11:39:45.272Z,11.72
2017-03-03T11:40:54.568Z,11.75
2017-03-03T11:42:03.571Z,11.72
2017-03-03T11:43:12.561Z,11.67
2017-03-03T11:44:21.549Z,11.62
2017-03-03T11:45:30.543Z,11.62
2017-03-03T11:46:39.779Z,11.75
2017-03-03T11:47:48.771Z,11.67
2017-03-03T11:48:57.875Z,11.7
2017-03-03T11:50:06.863Z,11.8
2017-03-03T11:51:15.861Z,11.83
2017-03-03T11:52:25.159Z,11.95
2017-03-03T11:53:34.140Z,11.85
2017-03-03T11:54:43.184Z,11.91
2017-03-03T11:55:52.197Z,11.85
2017-03-03T11:57:01.170Z,11.94
2017-03-03T11:58:10.602Z,11.91
2017-03-03T11:59:19.614Z,11.99
2017-03-03T12:00:28.603Z,12.1
2017-03-03T12:01:37.599Z,12.12
2017-03-03T12:02:46.594Z,12.12
2017-03-03T12:03:55.981Z,12.12
2017-03-03T12:05:05.055Z,12.09
2017-03-03T12:06:14.069Z,12.13
2017-03-03T12:07:23.472Z,12.09
2017-03-03T12:08:32.900Z,12.2
2017-03-03T12:09:42.200Z,12.24
2017-03-03T12:10:51.270Z,12.21
2017-03-03T12:12:00.274Z,12.17
2017-03-03T12:13:09.484Z,12.2
2017-03-03T12:14:18.487Z,12.35
2017-03-03T12:15:27.962Z,12.23
2017-03-03T12:16:36.980Z,12.24
2017-03-03T12:17:46.409Z,12.23
2017-03-03T12:18:55.409Z,12.34
2017-03-03T12:20:04.405Z,12.31
2017-03-03T12:21:13.709Z,12.32
2017-03-03T12:22:22.707Z,12.19
2017-03-03T12:23:31.789Z,12.21
2017-03-03T12:24:40.794Z,12.28
2017-03-03T12:25:49.803Z,12.34
2017-03-03T12:26:59.101Z,12.31
2017-03-03T12:28:08.093Z,12.28
2017-03-03T12:29:17.176Z,12.28
2017-03-03T12:30:26.268Z,12.31
2017-03-03T12:31:35.257Z,12.34
2017-03-03T12:32:44.555Z,12.39
2017-03-03T12:33:53.590Z,12.41
2017-03-03T12:35:02.671Z,12.46
2017-03-03T12:36:12.084Z,12.41
2017-03-03T12:37:21.100Z,12.39
2017-03-03T12:38:30.343Z,12.41
2017-03-03T12:39:39.348Z,12.46
2017-03-03T12:40:48.367Z,12.52
2017-03-03T12:41:57.460Z,12.5
2017-03-03T12:43:06.447Z,12.56
2017-03-03T12:44:15.741Z,12.53
2017-03-03T12:45:24.731Z,12.62
2017-03-03T12:46:33.721Z,12.57
2017-03-03T12:47:42.848Z,12.56
2017-03-03T12:48:51.895Z,12.54
2017-03-03T12:50:01.605Z,12.52
2017-03-03T12:51:10.604Z,12.52
2017-03-03T12:52:19.597Z,12.49
2017-03-03T12:53:28.985Z,12.42
2017-03-03T12:54:38.002Z,12.47
2017-03-03T12:55:47.304Z,12.6
2017-03-03T12:56:56.286Z,12.59
2017-03-03T12:58:05.383Z,12.54
2017-03-03T12:59:14.399Z,12.57
2017-03-03T13:00:23.382Z,12.6
2017-03-03T13:01:32.737Z,12.59
2017-03-03T13:02:41.723Z,12.67
2017-03-03T13:03:50.727Z,12.7
2017-03-03T13:04:59.720Z,12.65
2017-03-03T13:06:08.800Z,12.67
2017-03-03T13:07:18.276Z,12.54
2017-03-03T13:08:27.374Z,12.6
2017-03-03T13:09:36.516Z,12.54
2017-03-03T13:10:45.540Z,12.7
2017-03-03T13:11:54.631Z,12.74
2017-03-03T13:13:03.995Z,12.79
2017-03-03T13:14:13.152Z,12.7
2017-03-03T13:15:22.240Z,12.67
2017-03-03T13:16:31.294Z,12.86
2017-03-03T13:17:40.368Z,12.74
2017-03-03T13:18:49.789Z,12.77
2017-03-03T13:19:58.842Z,12.77
2017-03-03T13:21:07.832Z,12.82
2017-03-03T13:22:16.901Z,12.72
2017-03-03T13:23:25.902Z,12.72
2017-03-03T13:24:35.349Z,12.74
2017-03-03T13:25:44.334Z,12.86
2017-03-03T13:26:53.389Z,12.82
2017-03-03T13:28:02.521Z,12.85
2017-03-03T13:29:11.699Z,12.85
2017-03-03T13:30:21.014Z,12.87
2017-03-03T13:31:30.035Z,12.83
2017-03-03T13:32:39.082Z,12.9
2017-03-03T13:33:48.124Z,12.79
2017-03-03T13:34:57.107Z,12.74
2017-03-03T13:36:06.409Z,12.74
2017-03-03T13:37:15.908Z,12.68
2017-03-03T13:38:24.910Z,12.65
2017-03-03T13:39:33.969Z,12.7
2017-03-03T13:40:43.466Z,12.72
2017-03-03T13:41:52.940Z,12.67
2017-03-03T13:43:01.933Z,12.7
2017-03-03T13:44:10.936Z,12.7
2017-03-03T13:45:19.941Z,12.7
2017-03-03T13:46:29.254Z,12.67
2017-03-03T13:47:38.631Z,12.74
2017-03-03T13:48:47.700Z,12.7
2017-03-03T13:49:56.697Z,12.67
2017-03-03T13:51:05.697Z,12.71
2017-03-03T13:52:14.697Z,12.71
2017-03-03T13:53:24.405Z,12.68
2017-03-03T13:54:33.937Z,12.75
2017-03-03T13:55:42.948Z,12.68
2017-03-03T13:56:52.368Z,12.7
2017-03-03T13:58:01.345Z,12.71
2017-03-03T13:59:10.663Z,12.7
2017-03-03T14:00:19.668Z,12.68
2017-03-03T14:01:28.655Z,12.71
2017-03-03T14:02:37.658Z,12.72
2017-03-03T14:03:46.656Z,12.72
2017-03-03T14:04:55.974Z,12.7
2017-03-03T14:06:05.053Z,12.71
2017-03-03T14:07:14.035Z,12.75
2017-03-03T14:08:23.028Z,12.68
2017-03-03T14:09:32.186Z,12.72
2017-03-03T14:10:41.507Z,12.78
2017-03-03T14:11:50.584Z,12.67
2017-03-03T14:12:59.587Z,12.68
2017-03-03T14:14:08.587Z,12.68
2017-03-03T14:15:17.618Z,12.75
2017-03-03T14:16:26.991Z,12.71
2017-03-03T14:17:35.984Z,12.71
2017-03-03T14:18:45.051Z,12.7
2017-03-03T14:19:54.051Z,12.7
2017-03-03T14:21:03.062Z,12.79
2017-03-03T14:22:12.391Z,12.86
2017-03-03T14:23:21.436Z,12.83
2017-03-03T14:24:30.638Z,12.9
2017-03-03T14:25:39.663Z,12.89
2017-03-03T14:26:48.786Z,12.92
2017-03-03T14:27:58.580Z,12.89
2017-03-03T14:29:07.618Z,12.92
2017-03-03T14:30:16.812Z,12.86
2017-03-03T14:31:26.369Z,12.86
2017-03-03T14:32:35.628Z,12.85
2017-03-03T14:33:44.972Z,12.87
2017-03-03T14:34:54.132Z,12.78
2017-03-03T14:36:03.117Z,12.87
2017-03-03T14:37:12.098Z,12.87
2017-03-03T14:38:21.095Z,12.85
2017-03-03T14:39:30.381Z,12.85
2017-03-03T14:40:39.388Z,12.77
2017-03-03T14:41:48.453Z,12.77
2017-03-03T14:42:57.529Z,12.75
2017-03-03T14:44:06.525Z,12.7
2017-03-03T14:45:15.815Z,12.7
2017-03-03T14:46:24.818Z,12.7
2017-03-03T14:47:33.807Z,12.68
2017-03-03T14:48:42.832Z,12.71
2017-03-03T14:49:51.811Z,12.68
2017-03-03T14:51:01.131Z,12.72
2017-03-03T14:52:10.219Z,12.78
2017-03-03T14:53:19.320Z,12.71
2017-03-03T14:54:28.400Z,12.7
2017-03-03T14:55:37.409Z,12.71
2017-03-03T14:56:46.801Z,12.7
2017-03-03T14:57:55.798Z,12.7
2017-03-03T14:59:04.781Z,12.68
2017-03-03T15:00:14.178Z,12.65
2017-03-03T15:01:23.179Z,12.65
2017-03-03T15:02:32.414Z,12.67
2017-03-03T15:03:41.478Z,12.68
2017-03-03T15:04:50.546Z,12.62
2017-03-03T15:05:59.548Z,12.54
2017-03-03T15:07:08.544Z,12.59
2017-03-03T15:08:18.209Z,12.6
2017-03-03T15:09:27.187Z,12.57
2017-03-03T15:10:36.205Z,12.5
2017-03-03T15:11:45.183Z,12.49